Pagrindinis puslapis
METAR-TAF:

METAR-TAF

Oro uostai :

Damamas, Saudo Arabija

platuma: 26-28N, ilguma: 049-47E, Aukštis: 22 m

Dabartinis oras

Ataskaita buvo paskelbta 57 minutes, ne 23:00 UTC
Vėjas 6 kt iš Vakarų
Temperatūra 21°C
Drėgmė 40%
Slėgis 1014 hPa
Matomumas 10 km arba daugiau
nėra debesų žemiau 1500 m ir nėra kamuolinių lietaus debesų

METAR: OEDF 052300Z 28006KT CAVOK 21/07 Q1014 NOSIG

Laikas: 02:57 (23:57 UTC)

Prognozė

Ataskaita buvo paskelbta 3 valandos ir 57 minutes, ne 20:00 UTC
Prognozė galioja nuo 06 metu 00 UTC su 07 metu 06 UTC
Vėjas 10 kt iš Vakarų/Šiaurės Vakarų
Matomumas 10 km arba daugiau
nėra debesų žemiau 1500 m ir nėra kamuolinių lietaus debesų
Tapsmas
nuo 06 metu 10 UTC su 06 metu 12 UTC
Vėjas 15 kt iš Šiaurės Rytų

TAF: OEDF 052000Z 0600/0706 30010KT CAVOK BECMG 0610/0612 05015KT

Orai ataskaitas ir orų prognozės (METAR, TAF).

turimą stotys yra geltonos ir raudonos taškus žemėlapyje.

Perkelti pele per norėdami pamatyti stoties vardą.

Tada spustelėkite, norėdami matyti oro stebėjimo ir prognozės.

Norėdami pakeisti žemėlapį: spustelėkite ant žalios mygtukų su juodo kryžiaus žemyn,; žalią mygtuką su brūkšneliu, jei norite nutolinti; arba žalių rodyklių gretimoms žemėlapius.


METAR-TAF: